createdAt,value
2023-05-10T00:01:26.131Z,101943.72
2023-05-10T00:03:54.261Z,101977.50
2023-05-10T00:06:22.454Z,101949.72
2023-05-10T00:08:50.574Z,101979.94
2023-05-10T00:11:19.617Z,101992.34
2023-05-10T00:13:48.820Z,101984.59
2023-05-10T00:16:18.211Z,101986.41
2023-05-10T00:18:46.190Z,101995.22
2023-05-10T00:21:14.246Z,101991.09
2023-05-10T00:23:42.460Z,101937.34
2023-05-10T00:26:10.424Z,101979.72
2023-05-10T00:28:38.511Z,101986.06
2023-05-10T00:31:06.609Z,101994.75
2023-05-10T00:33:35.915Z,101959.44
2023-05-10T00:36:03.952Z,101989.75
2023-05-10T00:38:32.066Z,101988.78
2023-05-10T00:41:00.195Z,101987.09
2023-05-10T00:43:28.272Z,101984.19
2023-05-10T00:45:56.859Z,101981.88
2023-05-10T00:48:25.200Z,101981.66
2023-05-10T00:50:54.709Z,101985.22
2023-05-10T00:53:23.111Z,101984.94
2023-05-10T00:55:52.030Z,101981.38
2023-05-10T00:58:20.300Z,101984.34
2023-05-10T01:00:49.435Z,101982.72
2023-05-10T01:03:18.263Z,101984.84
2023-05-10T01:05:46.328Z,101971.78
2023-05-10T01:08:15.983Z,101978.16
2023-05-10T01:10:45.101Z,101972.09
2023-05-10T01:13:14.425Z,101977.72
2023-05-10T01:15:43.065Z,101966.66
2023-05-10T01:18:11.570Z,101971.34
2023-05-10T01:20:49.977Z,101939.13
2023-05-10T01:23:45.913Z,101979.72
2023-05-10T01:26:31.538Z,101982.75
2023-05-10T01:29:20.970Z,101986.16
2023-05-10T01:32:22.853Z,101979.72
2023-05-10T01:35:01.644Z,101979.72
2023-05-10T01:37:38.869Z,101981.47
2023-05-10T01:40:15.649Z,101986.47
2023-05-10T01:42:52.281Z,101976.31
2023-05-10T01:45:27.314Z,101915.06
2023-05-10T01:48:04.544Z,101976.53
2023-05-10T01:50:34.484Z,101977.72
2023-05-10T01:53:04.562Z,101936.78
2023-05-10T01:55:36.937Z,101986.16
2023-05-10T01:58:08.927Z,101945.38
2023-05-10T02:00:38.793Z,101962.00
2023-05-10T02:03:10.820Z,101985.25
2023-05-10T02:05:39.739Z,101987.84
2023-05-10T02:08:09.000Z,101982.72
2023-05-10T02:10:37.764Z,101987.22
2023-05-10T02:13:08.269Z,101987.09
2023-05-10T02:15:38.136Z,101961.69
2023-05-10T02:18:07.808Z,101982.22
2023-05-10T02:20:37.411Z,101989.88
2023-05-10T02:23:06.623Z,101982.16
2023-05-10T02:25:35.573Z,101992.59
2023-05-10T02:28:05.923Z,101982.25
2023-05-10T02:30:35.899Z,101984.00
2023-05-10T02:33:06.269Z,101987.44
2023-05-10T02:35:34.788Z,101990.00
2023-05-10T02:38:04.913Z,101984.13
2023-05-10T02:40:34.710Z,101988.31
2023-05-10T02:43:04.805Z,101991.84
2023-05-10T02:45:34.390Z,101983.19
2023-05-10T02:48:02.723Z,101972.56
2023-05-10T02:50:32.844Z,101983.88
2023-05-10T02:53:08.716Z,101989.09
2023-05-10T02:55:42.709Z,101987.28
2023-05-10T02:58:11.155Z,101984.56
2023-05-10T03:00:39.219Z,101983.44
2023-05-10T03:03:07.978Z,101978.19
2023-05-10T03:05:36.098Z,101980.56
2023-05-10T03:08:07.170Z,101977.94
2023-05-10T03:10:39.588Z,101985.69
2023-05-10T03:13:15.126Z,101988.97
2023-05-10T03:15:52.956Z,101987.09
2023-05-10T03:18:25.343Z,101989.56
2023-05-10T03:20:59.924Z,101992.94
2023-05-10T03:23:36.303Z,101963.13
2023-05-10T03:26:06.913Z,101987.50
2023-05-10T03:28:36.330Z,101989.28
2023-05-10T03:31:06.605Z,101988.28
2023-05-10T03:33:34.695Z,101992.28
2023-05-10T03:36:02.648Z,101986.88
2023-05-10T03:38:32.055Z,101990.25
2023-05-10T03:41:00.151Z,101990.34
2023-05-10T03:43:29.794Z,101940.38
2023-05-10T03:45:57.808Z,101987.38
2023-05-10T03:48:26.051Z,101977.09
2023-05-10T03:50:53.915Z,101985.34
2023-05-10T03:53:22.096Z,101985.13
2023-05-10T03:55:54.463Z,101988.38
2023-05-10T03:58:22.969Z,101986.72
2023-05-10T04:00:50.960Z,101985.59
2023-05-10T04:03:22.169Z,101988.56
2023-05-10T04:05:50.461Z,101987.56
2023-05-10T04:08:18.468Z,101984.00
2023-05-10T04:10:46.481Z,101986.25
2023-05-10T04:13:16.153Z,101989.34
2023-05-10T04:15:44.739Z,101986.69
2023-05-10T04:18:13.117Z,101983.00
2023-05-10T04:20:41.125Z,101984.41
2023-05-10T04:23:09.043Z,101982.38
2023-05-10T04:25:38.338Z,101983.59
2023-05-10T04:28:06.530Z,101980.06
2023-05-10T04:30:35.917Z,101985.13
2023-05-10T04:33:04.053Z,101994.19
2023-05-10T04:35:32.057Z,101984.41
2023-05-10T04:37:59.967Z,101985.94
2023-05-10T04:40:28.365Z,101995.91
2023-05-10T04:42:56.462Z,101986.75
2023-05-10T04:45:24.556Z,101987.28
2023-05-10T04:47:54.164Z,101982.13
2023-05-10T04:50:22.104Z,101993.91
2023-05-10T04:52:50.093Z,101952.19
2023-05-10T04:55:18.414Z,101978.72
2023-05-10T04:57:46.656Z,101984.28
2023-05-10T05:00:15.777Z,101990.84
2023-05-10T05:02:48.382Z,101988.63
2023-05-10T05:05:18.013Z,101991.63
2023-05-10T05:07:47.883Z,101989.06
2023-05-10T05:10:16.497Z,101995.63
2023-05-10T05:12:44.760Z,101955.63
2023-05-10T05:15:13.292Z,101984.34
2023-05-10T05:17:41.384Z,101994.56
2023-05-10T05:20:10.344Z,101994.09
2023-05-10T05:22:39.945Z,101985.25
2023-05-10T05:25:08.875Z,102000.91
2023-05-10T05:27:36.861Z,101997.00
2023-05-10T05:30:05.465Z,101999.41
2023-05-10T05:32:36.536Z,101994.19
2023-05-10T05:35:04.828Z,101993.75
2023-05-10T05:37:32.785Z,101998.97
2023-05-10T05:40:03.116Z,101996.56
2023-05-10T05:42:30.873Z,101999.50
2023-05-10T05:44:58.877Z,101991.75
2023-05-10T05:47:27.089Z,101991.94
2023-05-10T05:49:55.165Z,101995.94
2023-05-10T05:52:23.362Z,101993.72
2023-05-10T05:54:51.360Z,101994.28
2023-05-10T05:57:20.750Z,101991.13
2023-05-10T05:59:49.382Z,101996.25
2023-05-10T06:02:17.675Z,101986.84
2023-05-10T06:04:45.640Z,101993.72
2023-05-10T06:07:13.683Z,101989.34
2023-05-10T06:09:41.739Z,101986.25
2023-05-10T06:12:09.664Z,101989.22
2023-05-10T06:14:39.013Z,101973.75
2023-05-10T06:17:10.826Z,101990.31
2023-05-10T06:19:38.938Z,101996.22
2023-05-10T06:22:06.911Z,101996.03
2023-05-10T06:24:34.956Z,101991.44
2023-05-10T06:27:03.285Z,102000.69
2023-05-10T06:29:31.253Z,101994.44
2023-05-10T06:32:00.886Z,101952.06
2023-05-10T06:34:29.064Z,101992.66
2023-05-10T06:36:57.011Z,101986.84
2023-05-10T06:39:25.171Z,101951.38
2023-05-10T06:41:53.379Z,101989.41
2023-05-10T06:44:21.263Z,101991.00
2023-05-10T06:46:49.483Z,101988.84
2023-05-10T06:49:19.170Z,101986.00
2023-05-10T06:51:47.283Z,101987.91
2023-05-10T06:54:15.447Z,101986.28
2023-05-10T06:56:43.679Z,101988.72
2023-05-10T06:59:11.753Z,101986.03
2023-05-10T07:01:39.852Z,101991.38
2023-05-10T07:04:08.815Z,101987.00
2023-05-10T07:06:38.191Z,101987.41
2023-05-10T07:09:06.281Z,101986.31
2023-05-10T07:11:34.394Z,101979.13
2023-05-10T07:14:02.381Z,101980.28
2023-05-10T07:16:30.370Z,101986.47
2023-05-10T07:18:58.384Z,101984.34
2023-05-10T07:21:29.608Z,101973.22
2023-05-10T07:23:59.358Z,101981.81
2023-05-10T07:26:27.242Z,101988.50
2023-05-10T07:28:55.186Z,101986.75
2023-05-10T07:31:23.348Z,101987.41
2023-05-10T07:33:51.357Z,101977.78
2023-05-10T07:36:19.349Z,101990.97
2023-05-10T07:38:47.481Z,101997.06
2023-05-10T07:41:16.872Z,101993.34
2023-05-10T07:43:44.896Z,101996.19
2023-05-10T07:46:13.073Z,101997.22
2023-05-10T07:48:41.124Z,101994.47
2023-05-10T07:51:10.446Z,102000.09
2023-05-10T07:53:39.399Z,101990.47
2023-05-10T07:59:04.982Z,101989.53
2023-05-10T08:01:33.746Z,101995.41
2023-05-10T08:04:02.958Z,101990.16
2023-05-10T08:06:31.483Z,101991.22
2023-05-10T08:08:59.496Z,101991.41
2023-05-10T08:11:28.732Z,101977.19
2023-05-10T08:13:56.872Z,101998.25
2023-05-10T08:16:26.160Z,101994.19
2023-05-10T08:18:56.365Z,101994.31
2023-05-10T08:21:24.667Z,101981.97
2023-05-10T08:23:52.618Z,101998.56
2023-05-10T08:26:22.020Z,101998.59
2023-05-10T08:28:50.157Z,101994.59
2023-05-10T08:31:19.070Z,101998.47
2023-05-10T08:33:48.545Z,101995.00
2023-05-10T08:36:20.854Z,101997.88
2023-05-10T08:38:50.241Z,101999.41
2023-05-10T08:41:19.352Z,101990.56
2023-05-10T08:43:48.197Z,101991.25
2023-05-10T08:46:19.413Z,101986.41
2023-05-10T08:48:49.895Z,101981.78
2023-05-10T08:51:20.894Z,101942.47
2023-05-10T08:53:49.694Z,101989.38
2023-05-10T08:56:18.919Z,101991.34
2023-05-10T08:58:47.060Z,101985.38
2023-05-10T09:01:17.292Z,101999.78
2023-05-10T09:03:45.586Z,101992.09
2023-05-10T09:06:15.305Z,101986.94
2023-05-10T09:08:44.265Z,101991.78
2023-05-10T09:11:13.221Z,101991.56
2023-05-10T09:13:43.999Z,101970.97
2023-05-10T09:16:21.325Z,101964.53
2023-05-10T09:18:50.749Z,101994.13
2023-05-10T09:21:21.684Z,101991.25
2023-05-10T09:23:51.271Z,101989.16
2023-05-10T09:26:19.419Z,101996.75
2023-05-10T09:28:54.610Z,101996.34
2023-05-10T09:31:22.857Z,101997.25
2023-05-10T09:33:52.165Z,101989.19
2023-05-10T09:36:21.777Z,101990.72
2023-05-10T09:38:52.748Z,101967.94
2023-05-10T09:41:22.273Z,101985.09
2023-05-10T09:43:50.588Z,101987.63
2023-05-10T09:46:18.900Z,101984.94
2023-05-10T09:48:48.740Z,101987.88
2023-05-10T09:51:25.370Z,101984.16
2023-05-10T09:54:12.128Z,101973.59
2023-05-10T09:56:41.666Z,101934.56
2023-05-10T09:59:11.695Z,101985.81
2023-05-10T10:01:40.268Z,101978.78
2023-05-10T10:04:09.678Z,101979.78
2023-05-10T10:06:40.066Z,101970.53
2023-05-10T10:09:08.882Z,101974.91
2023-05-10T10:11:38.358Z,101974.44
2023-05-10T10:14:06.859Z,101953.41
2023-05-10T10:16:39.948Z,101969.16
2023-05-10T10:19:14.570Z,101977.59
2023-05-10T10:21:44.137Z,101970.53
2023-05-10T10:24:11.982Z,101979.03
2023-05-10T10:26:42.673Z,101932.66
2023-05-10T10:29:20.922Z,101985.97
2023-05-10T10:31:56.778Z,101965.88
2023-05-10T10:34:29.430Z,101966.63
2023-05-10T10:36:59.993Z,101976.41
2023-05-10T10:39:29.259Z,101973.91
2023-05-10T10:41:58.553Z,101969.34
2023-05-10T10:44:28.579Z,101974.50
2023-05-10T10:47:07.035Z,101964.81
2023-05-10T10:49:39.524Z,101970.31
2023-05-10T10:52:23.928Z,101971.63
2023-05-10T10:54:59.884Z,101940.06
2023-05-10T10:57:28.840Z,101963.25
2023-05-10T11:00:22.121Z,101966.94
2023-05-10T11:02:54.828Z,101965.03
2023-05-10T11:05:27.807Z,101954.72
2023-05-10T11:07:58.342Z,101936.41
2023-05-10T11:10:27.561Z,101958.50
2023-05-10T11:13:01.983Z,101955.31
2023-05-10T11:15:34.166Z,101958.59
2023-05-10T11:18:18.262Z,101960.88
2023-05-10T11:20:47.789Z,101963.56
2023-05-10T11:23:18.945Z,101969.41
2023-05-10T11:25:48.265Z,101954.72
2023-05-10T11:28:16.891Z,101928.63
2023-05-10T11:30:46.691Z,101954.22
2023-05-10T11:33:19.225Z,101914.25
2023-05-10T11:35:47.219Z,101951.34
2023-05-10T11:38:16.494Z,101952.47
2023-05-10T11:40:44.829Z,101947.03
2023-05-10T11:43:13.429Z,101950.59
2023-05-10T11:45:43.505Z,101946.44
2023-05-10T11:48:11.866Z,101963.59
2023-05-10T11:50:39.920Z,101967.66
2023-05-10T11:53:07.954Z,101957.66
2023-05-10T11:55:37.695Z,101958.53
2023-05-10T11:58:06.046Z,101961.81
2023-05-10T12:00:34.403Z,101955.09
2023-05-10T12:03:04.284Z,101948.31
2023-05-10T12:05:35.153Z,101954.25
2023-05-10T12:08:16.812Z,101969.00
2023-05-10T12:10:46.205Z,101958.22
2023-05-10T12:13:16.179Z,101958.72
2023-05-10T12:15:45.355Z,101945.38
2023-05-10T12:18:14.652Z,101949.97
2023-05-10T12:20:43.566Z,101951.06
2023-05-10T12:23:12.295Z,101955.25
2023-05-10T12:25:41.098Z,101948.78
2023-05-10T12:28:11.703Z,101958.47
2023-05-10T12:30:40.430Z,101953.94
2023-05-10T12:33:14.370Z,101949.00
2023-05-10T12:35:51.237Z,101951.94
2023-05-10T12:38:27.992Z,101961.53
2023-05-10T12:40:56.075Z,101954.69
2023-05-10T12:43:25.540Z,101953.94
2023-05-10T12:45:53.699Z,101962.78
2023-05-10T12:48:22.012Z,101944.91
2023-05-10T12:50:50.170Z,101951.81
2023-05-10T12:53:18.934Z,101950.66
2023-05-10T12:55:46.913Z,101952.75
2023-05-10T12:58:31.510Z,101954.97
2023-05-10T13:01:05.279Z,101942.34
2023-05-10T13:03:33.515Z,101948.59
2023-05-10T13:06:01.534Z,101936.75
2023-05-10T13:08:34.331Z,101941.53
2023-05-10T13:11:02.829Z,101944.72
2023-05-10T13:13:30.839Z,101943.59
2023-05-10T13:15:58.849Z,101945.59
2023-05-10T13:18:28.507Z,101947.50
2023-05-10T13:20:56.778Z,101935.66
2023-05-10T13:23:24.844Z,101952.44
2023-05-10T13:25:53.123Z,101952.06
2023-05-10T13:28:21.123Z,101957.22
2023-05-10T13:30:49.108Z,101938.44
2023-05-10T13:33:17.166Z,101935.63
2023-05-10T13:35:46.632Z,101949.50
2023-05-10T13:38:14.938Z,101940.41
2023-05-10T13:40:43.030Z,101945.28
2023-05-10T13:43:11.215Z,101940.94
2023-05-10T13:45:40.143Z,101945.38
2023-05-10T13:48:08.285Z,101935.06
2023-05-10T13:50:36.272Z,101937.63
2023-05-10T13:53:06.530Z,101944.72
2023-05-10T13:55:34.668Z,101954.31
2023-05-10T13:58:02.646Z,101945.06
2023-05-10T14:00:30.767Z,101950.00
2023-05-10T14:02:58.931Z,101939.28
2023-05-10T14:05:27.020Z,101935.38
2023-05-10T14:07:55.306Z,101937.28
2023-05-10T14:10:24.700Z,101933.91
2023-05-10T14:12:52.826Z,101936.16
2023-05-10T14:15:20.935Z,101931.28
2023-05-10T14:17:48.984Z,101930.25
2023-05-10T14:20:17.198Z,101931.09
2023-05-10T14:22:45.196Z,101922.13
2023-05-10T14:25:13.744Z,101932.47
2023-05-10T14:27:43.125Z,101931.19
2023-05-10T14:30:12.094Z,101921.06
2023-05-10T14:32:40.337Z,101924.88
2023-05-10T14:35:10.831Z,101931.81
2023-05-10T14:37:40.954Z,101930.66
2023-05-10T14:40:10.355Z,101923.72
2023-05-10T14:42:38.373Z,101925.22
2023-05-10T14:45:09.551Z,101934.44
2023-05-10T14:47:37.505Z,101928.94
2023-05-10T14:50:06.121Z,101925.31
2023-05-10T14:52:34.542Z,101927.25
2023-05-10T14:55:02.548Z,101934.00
2023-05-10T14:57:30.796Z,101929.00
2023-05-10T14:59:58.989Z,101923.00
2023-05-10T15:02:28.659Z,101923.41
2023-05-10T15:04:58.427Z,101921.50
2023-05-10T15:07:27.105Z,101934.34
2023-05-10T15:09:55.184Z,101930.34
2023-05-10T15:12:23.077Z,101891.44
2023-05-10T15:14:51.173Z,101922.03
2023-05-10T15:17:19.160Z,101916.28
2023-05-10T15:19:50.167Z,101925.53
2023-05-10T15:22:18.376Z,101923.28
2023-05-10T15:24:46.311Z,101925.19
2023-05-10T15:27:14.381Z,101918.13
2023-05-10T15:29:42.643Z,101917.59
2023-05-10T15:32:10.585Z,101918.94
2023-05-10T15:34:38.541Z,101912.69
2023-05-10T15:37:08.144Z,101913.59
2023-05-10T15:39:36.350Z,101899.72
2023-05-10T15:42:04.962Z,101910.69
2023-05-10T15:44:32.918Z,101911.81
2023-05-10T15:47:00.936Z,101910.25
2023-05-10T15:49:28.936Z,101921.84
2023-05-10T15:51:56.969Z,101904.03
2023-05-10T15:54:26.553Z,101915.84
2023-05-10T15:56:55.281Z,101908.97
2023-05-10T15:59:23.352Z,101920.34
2023-05-10T16:01:52.008Z,101903.63
2023-05-10T16:04:20.076Z,101914.66
2023-05-10T16:06:48.161Z,101915.97
2023-05-10T16:09:16.804Z,101915.06
2023-05-10T16:11:46.397Z,101924.78
2023-05-10T16:14:14.544Z,101920.13
2023-05-10T16:16:43.305Z,101922.44
2023-05-10T16:19:11.367Z,101922.56
2023-05-10T16:21:39.439Z,101927.94
2023-05-10T16:24:07.768Z,101926.59
2023-05-10T16:26:40.989Z,101928.78
2023-05-10T16:29:10.692Z,101935.38
2023-05-10T16:31:38.612Z,101922.59
2023-05-10T16:34:06.550Z,101923.59
2023-05-10T16:36:35.308Z,101913.38
2023-05-10T16:39:03.982Z,101932.94
2023-05-10T16:41:35.185Z,101924.69
2023-05-10T16:44:03.711Z,101923.34
2023-05-10T16:46:33.255Z,101934.22
2023-05-10T16:49:01.349Z,101938.69
2023-05-10T16:51:29.528Z,101937.41
2023-05-10T16:53:57.476Z,101940.75
2023-05-10T16:56:27.521Z,101941.81
2023-05-10T16:58:55.605Z,101936.03
2023-05-10T17:01:26.278Z,101938.34
2023-05-10T17:03:56.558Z,101929.69
2023-05-10T17:06:24.585Z,101931.41
2023-05-10T17:08:52.642Z,101928.97
2023-05-10T17:11:21.966Z,101934.44
2023-05-10T17:13:49.917Z,101945.91
2023-05-10T17:16:17.968Z,101945.34
2023-05-10T17:18:46.644Z,101945.28
2023-05-10T17:21:16.455Z,101944.13
2023-05-10T17:23:44.415Z,101950.66
2023-05-10T17:26:13.076Z,101948.63
2023-05-10T17:28:40.947Z,101942.56
2023-05-10T17:31:08.981Z,101940.34
2023-05-10T18:13:46.418Z,101980.03
2023-05-10T18:16:14.583Z,101974.06
2023-05-10T18:18:42.568Z,101978.75
2023-05-10T18:21:11.187Z,101983.53
2023-05-10T18:23:39.212Z,101986.38
2023-05-10T18:26:08.731Z,101983.31
2023-05-10T18:28:39.769Z,101986.56
2023-05-10T18:31:12.631Z,101984.59
2023-05-10T18:33:41.623Z,101984.59
2023-05-10T18:36:09.696Z,101989.44
2023-05-10T18:38:38.719Z,101983.97
2023-05-10T18:41:07.449Z,101994.63
2023-05-10T18:43:35.340Z,101993.91
2023-05-10T18:46:03.343Z,101996.94
2023-05-10T18:48:32.712Z,101990.16
2023-05-10T18:51:00.892Z,101997.66
2023-05-10T18:53:28.883Z,101996.66
2023-05-10T18:55:58.249Z,101999.63
2023-05-10T18:58:26.324Z,101952.06
2023-05-10T19:00:55.966Z,101999.03
2023-05-10T19:03:24.176Z,102009.19
2023-05-10T19:05:53.469Z,102001.63
2023-05-10T19:08:24.652Z,102011.72
2023-05-10T19:10:52.689Z,102014.31
2023-05-10T19:13:22.424Z,101976.25
2023-05-10T19:16:03.022Z,102016.59
2023-05-10T19:18:33.273Z,102019.88
2023-05-10T19:21:04.792Z,102012.84
2023-05-10T19:23:33.724Z,102017.16
2023-05-10T19:26:04.665Z,102020.59
2023-05-10T19:28:34.087Z,102020.88
2023-05-10T19:31:05.045Z,102019.41
2023-05-10T19:33:38.435Z,102024.13
2023-05-10T19:36:09.185Z,102016.25
2023-05-10T19:38:38.300Z,102021.22
2023-05-10T19:41:06.795Z,102019.97
2023-05-10T19:43:36.406Z,102023.84
2023-05-10T19:46:04.660Z,102020.72
2023-05-10T19:48:33.123Z,102025.72
2023-05-10T19:51:02.429Z,102020.50
2023-05-10T19:53:34.030Z,102020.22
2023-05-10T19:56:06.699Z,102017.53
2023-05-10T19:58:35.294Z,101991.94
2023-05-10T20:01:03.920Z,102025.53
2023-05-10T20:03:33.618Z,102025.19
2023-05-10T20:06:05.384Z,102016.69
2023-05-10T20:08:34.862Z,102023.25
2023-05-10T20:11:03.958Z,102002.56
2023-05-10T20:13:32.034Z,102021.16
2023-05-10T20:16:00.719Z,101997.25
2023-05-10T20:18:28.907Z,102027.31
2023-05-10T20:20:59.491Z,101989.47
2023-05-10T20:23:29.680Z,102028.41
2023-05-10T20:25:59.891Z,102020.66
2023-05-10T20:28:28.420Z,102024.59
2023-05-10T20:30:58.511Z,102035.50
2023-05-10T20:33:26.959Z,102033.63
2023-05-10T20:35:57.869Z,102031.41
2023-05-10T20:38:26.001Z,102033.06
2023-05-10T20:40:54.309Z,102030.72
2023-05-10T20:43:23.718Z,102035.06
2023-05-10T20:45:51.777Z,102038.19
2023-05-10T20:48:20.021Z,102037.03
2023-05-10T20:50:47.959Z,102003.63
2023-05-10T20:53:15.897Z,102044.81
2023-05-10T20:55:44.132Z,102042.13
2023-05-10T20:58:12.090Z,102049.06
2023-05-10T21:00:43.807Z,102043.91
2023-05-10T21:03:13.563Z,102044.72
2023-05-10T21:05:47.392Z,102042.38
2023-05-10T21:08:15.552Z,102044.09
2023-05-10T21:10:46.389Z,102041.50
2023-05-10T21:13:14.399Z,102045.38
2023-05-10T21:15:43.894Z,102041.84
2023-05-10T21:18:11.822Z,102016.28
2023-05-10T21:20:39.849Z,102044.53
2023-05-10T21:23:07.896Z,102047.13
2023-05-10T21:25:39.179Z,102039.88
2023-05-10T21:28:07.201Z,102051.63
2023-05-10T21:30:35.757Z,102051.63
2023-05-10T21:33:07.914Z,102050.78
2023-05-10T21:35:35.954Z,102051.06
2023-05-10T21:38:04.010Z,102053.63
2023-05-10T21:40:31.920Z,102048.53
2023-05-10T21:42:59.938Z,102046.91
2023-05-10T21:45:31.673Z,102032.03
2023-05-10T21:47:59.985Z,102056.50
2023-05-10T21:50:30.060Z,102057.59
2023-05-10T21:52:58.243Z,102051.31
2023-05-10T21:55:26.352Z,102058.22
2023-05-10T21:57:55.796Z,102059.97
2023-05-10T22:00:24.003Z,102072.41
2023-05-10T22:02:52.000Z,102063.41
2023-05-10T22:05:20.064Z,102063.03
2023-05-10T22:07:49.624Z,102063.63
2023-05-10T22:10:17.863Z,102070.41
2023-05-10T22:12:46.188Z,102068.78
2023-05-10T22:15:14.289Z,102070.59
2023-05-10T22:17:42.373Z,102074.78
2023-05-10T22:20:11.165Z,102077.63
2023-05-10T22:22:39.262Z,102072.31
2023-05-10T22:25:09.443Z,102076.56
2023-05-10T22:27:37.783Z,102087.03
2023-05-10T22:30:07.017Z,102079.22
2023-05-10T22:32:35.204Z,102079.59
2023-05-10T22:35:03.368Z,102082.06
2023-05-10T22:37:31.568Z,102088.81
2023-05-10T22:40:05.058Z,102090.34
2023-05-10T22:42:35.075Z,102082.56
2023-05-10T22:45:03.154Z,102088.22
2023-05-10T22:47:31.219Z,102089.69
2023-05-10T22:49:59.437Z,102087.00
2023-05-10T22:52:27.370Z,102040.50
2023-05-10T22:54:55.706Z,102092.19
2023-05-10T22:57:23.723Z,102069.25
2023-05-10T22:59:53.747Z,102057.53
2023-05-10T23:02:24.501Z,102088.69
2023-05-10T23:04:52.536Z,102090.63
2023-05-10T23:07:22.215Z,102094.97
2023-05-10T23:09:50.236Z,102100.50
2023-05-10T23:12:18.267Z,102091.22
2023-05-10T23:14:49.397Z,102096.03
2023-05-10T23:17:19.019Z,102097.53
2023-05-10T23:19:47.228Z,102103.84
2023-05-10T23:22:17.557Z,102103.84
2023-05-10T23:24:45.644Z,102097.28
2023-05-10T23:27:14.583Z,102103.28
2023-05-10T23:29:45.205Z,102095.59
2023-05-10T23:32:13.325Z,102094.97
2023-05-10T23:34:42.790Z,102100.53
2023-05-10T23:37:13.441Z,102097.44
2023-05-10T23:39:41.595Z,102101.69
2023-05-10T23:42:09.692Z,102043.94
2023-05-10T23:44:37.589Z,102107.28
2023-05-10T23:47:06.208Z,102111.38
2023-05-10T23:49:34.522Z,102102.63
2023-05-10T23:52:04.019Z,102105.91
2023-05-10T23:54:32.208Z,102079.81
2023-05-10T23:57:00.204Z,102099.28
2023-05-10T23:59:31.316Z,102072.81
